createdAt,value
2018-07-21T00:00:15.157Z,56.481934
2018-07-21T00:01:31.097Z,56.481934
2018-07-21T00:02:48.012Z,56.286621
2018-07-21T00:04:03.930Z,56.384277
2018-07-21T00:05:19.823Z,56.182861
2018-07-21T00:06:35.714Z,56.085205
2018-07-21T00:07:51.628Z,55.957031
2018-07-21T00:09:07.577Z,56.060791
2018-07-21T00:10:23.529Z,56.384277
2018-07-21T00:11:39.419Z,56.585693
2018-07-21T00:12:55.353Z,56.481934
2018-07-21T00:14:11.295Z,56.286621
2018-07-21T00:15:27.259Z,56.286621
2018-07-21T00:16:43.168Z,56.286621
2018-07-21T00:17:59.068Z,55.987549
2018-07-21T00:19:14.970Z,55.987549
2018-07-21T00:20:30.868Z,56.182861
2018-07-21T00:21:46.760Z,56.286621
2018-07-21T00:23:02.716Z,56.085205
2018-07-21T00:24:18.630Z,56.384277
2018-07-21T00:25:34.528Z,56.481934
2018-07-21T00:26:50.441Z,56.811523
2018-07-21T00:28:06.376Z,57.110596
2018-07-21T00:29:22.261Z,57.012939
2018-07-21T00:30:38.179Z,56.713867
2018-07-21T00:31:54.141Z,56.610107
2018-07-21T00:33:10.050Z,56.811523
2018-07-21T00:34:25.948Z,56.811523
2018-07-21T00:35:41.825Z,56.481934
2018-07-21T00:36:57.696Z,56.811523
2018-07-21T00:38:13.566Z,56.787109
2018-07-21T00:39:29.491Z,56.787109
2018-07-21T00:40:45.407Z,56.68335
2018-07-21T00:42:01.275Z,56.585693
2018-07-21T00:43:17.183Z,56.481934
2018-07-21T00:44:33.063Z,56.585693
2018-07-21T00:45:48.957Z,56.585693
2018-07-21T00:47:04.856Z,56.481934
2018-07-21T00:48:20.764Z,56.286621
2018-07-21T00:49:36.686Z,56.158447
2018-07-21T00:50:52.622Z,56.286621
2018-07-21T00:52:08.531Z,56.256104
2018-07-21T00:53:24.422Z,56.256104
2018-07-21T00:54:40.307Z,56.256104
2018-07-21T00:55:56.222Z,56.286621
2018-07-21T00:57:12.165Z,56.060791
2018-07-21T00:58:28.055Z,56.286621
2018-07-21T00:59:43.968Z,56.384277
2018-07-21T01:00:59.912Z,56.359863
2018-07-21T01:02:15.938Z,56.68335
2018-07-21T01:03:31.843Z,56.68335
2018-07-21T01:04:47.767Z,56.884766
2018-07-21T01:06:03.679Z,56.585693
2018-07-21T01:07:19.604Z,56.884766
2018-07-21T01:08:35.495Z,57.312012
2018-07-21T01:09:51.372Z,57.312012
2018-07-21T01:11:07.362Z,57.110596
2018-07-21T01:12:23.235Z,57.110596
2018-07-21T01:13:39.201Z,56.884766
2018-07-21T01:14:55.158Z,56.982422
2018-07-21T01:16:11.093Z,56.982422
2018-07-21T01:17:27.000Z,56.884766
2018-07-21T01:18:42.903Z,56.884766
2018-07-21T01:19:58.791Z,57.086182
2018-07-21T01:21:14.735Z,57.513428
2018-07-21T01:22:30.635Z,57.312012
2018-07-21T01:23:46.496Z,57.409668
2018-07-21T01:25:02.372Z,57.409668
2018-07-21T01:26:18.270Z,57.409668
2018-07-21T01:27:34.181Z,57.312012
2018-07-21T01:28:50.056Z,57.611084
2018-07-21T01:30:05.957Z,57.8125
2018-07-21T01:31:21.880Z,58.007812
2018-07-21T01:32:37.768Z,57.8125
2018-07-21T01:33:53.632Z,57.70874
2018-07-21T01:35:09.531Z,57.513428
2018-07-21T01:36:25.562Z,57.611084
2018-07-21T01:37:41.514Z,57.8125
2018-07-21T01:38:57.419Z,57.8125
2018-07-21T01:40:13.316Z,57.8125
2018-07-21T01:41:29.197Z,57.684326
2018-07-21T01:42:45.080Z,57.48291
2018-07-21T01:44:00.977Z,57.409668
2018-07-21T01:45:16.837Z,57.70874
2018-07-21T01:46:32.719Z,57.8125
2018-07-21T01:47:48.605Z,57.8125
2018-07-21T01:49:04.502Z,57.8125
2018-07-21T01:50:20.377Z,57.8125
2018-07-21T01:51:36.311Z,57.8125
2018-07-21T01:52:52.138Z,57.70874
2018-07-21T01:54:08.000Z,57.910156
2018-07-21T01:55:23.882Z,57.910156
2018-07-21T01:56:39.822Z,57.8125
2018-07-21T01:57:55.749Z,57.8125
2018-07-21T01:59:11.598Z,57.70874
2018-07-21T02:00:27.521Z,57.8125
2018-07-21T02:01:43.405Z,57.910156
2018-07-21T02:02:59.274Z,58.007812
2018-07-21T02:04:15.135Z,58.709717
2018-07-21T02:05:31.005Z,58.605957
2018-07-21T02:06:46.881Z,58.807373
2018-07-21T02:08:02.753Z,58.935547
2018-07-21T02:09:18.598Z,59.234619
2018-07-21T02:10:34.519Z,59.234619
2018-07-21T02:11:50.443Z,59.234619
2018-07-21T02:13:06.334Z,59.436035
2018-07-21T02:14:22.207Z,59.106445
2018-07-21T02:15:38.107Z,59.436035
2018-07-21T02:16:55.012Z,59.533691
2018-07-21T02:18:10.927Z,59.936523
2018-07-21T02:19:26.838Z,59.832764
2018-07-21T02:20:42.727Z,60.064697
2018-07-21T02:21:58.607Z,60.36377
2018-07-21T02:23:14.532Z,60.03418
2018-07-21T02:24:30.456Z,59.832764
2018-07-21T02:25:46.389Z,59.735107
2018-07-21T02:27:02.323Z,59.735107
2018-07-21T02:28:18.136Z,59.637451
2018-07-21T02:29:34.014Z,59.637451
2018-07-21T02:30:49.881Z,59.637451
2018-07-21T02:32:05.754Z,59.234619
2018-07-21T02:33:21.687Z,59.338379
2018-07-21T02:34:37.646Z,59.436035
2018-07-21T02:35:53.594Z,59.338379
2018-07-21T02:37:09.494Z,59.338379
2018-07-21T02:38:25.526Z,59.338379
2018-07-21T02:39:41.447Z,59.338379
2018-07-21T02:40:57.407Z,59.234619
2018-07-21T02:42:13.362Z,59.436035
2018-07-21T02:43:29.310Z,59.533691
2018-07-21T02:44:45.243Z,60.162354
2018-07-21T02:46:01.118Z,60.03418
2018-07-21T02:47:17.008Z,59.735107
2018-07-21T02:48:33.907Z,59.637451
2018-07-21T02:49:49.799Z,59.863281
2018-07-21T02:51:05.674Z,60.162354
2018-07-21T02:52:21.552Z,60.693359
2018-07-21T02:53:38.418Z,61.49292
2018-07-21T02:54:54.309Z,62.023926
2018-07-21T02:56:10.190Z,62.121582
2018-07-21T02:57:26.094Z,61.694336
2018-07-21T02:58:41.945Z,61.291504
2018-07-21T02:59:57.843Z,60.864258
2018-07-21T03:01:13.746Z,60.565186
2018-07-21T03:02:29.622Z,60.864258
2018-07-21T03:03:45.490Z,60.766602
2018-07-21T03:05:01.413Z,60.961914
2018-07-21T03:06:17.268Z,60.662842
2018-07-21T03:07:34.152Z,60.961914
2018-07-21T03:08:50.014Z,61.291504
2018-07-21T03:10:05.967Z,61.16333
2018-07-21T03:11:21.798Z,61.065674
2018-07-21T03:12:37.687Z,61.193848
2018-07-21T03:13:53.567Z,61.090088
2018-07-21T03:15:09.478Z,61.49292
2018-07-21T03:16:25.394Z,61.694336
2018-07-21T03:17:41.255Z,61.694336
2018-07-21T03:18:57.131Z,61.49292
2018-07-21T03:20:12.984Z,61.590576
2018-07-21T03:21:28.878Z,62.219238
2018-07-21T03:22:44.755Z,62.420654
2018-07-21T03:24:00.602Z,62.854004
2018-07-21T03:25:16.478Z,62.95166
2018-07-21T03:26:32.392Z,62.854004
2018-07-21T03:27:48.313Z,62.823486
2018-07-21T03:29:04.187Z,63.05542
2018-07-21T03:30:20.063Z,63.153076
2018-07-21T03:31:35.937Z,63.05542
2018-07-21T03:32:51.813Z,63.653564
2018-07-21T03:34:07.682Z,63.781738
2018-07-21T03:35:23.561Z,63.983154
2018-07-21T03:36:39.448Z,63.452148
2018-07-21T03:37:55.341Z,63.555908
2018-07-21T03:39:11.229Z,63.653564
2018-07-21T03:40:27.170Z,63.85498
2018-07-21T03:41:42.998Z,63.220215
2018-07-21T03:42:58.885Z,62.719727
2018-07-21T03:44:14.788Z,62.493896
2018-07-21T03:45:30.667Z,62.29248
2018-07-21T03:46:46.575Z,62.493896
2018-07-21T03:48:02.513Z,62.591553
2018-07-21T03:49:18.406Z,62.695312
2018-07-21T03:50:34.290Z,62.591553
2018-07-21T03:51:50.177Z,62.390137
2018-07-21T03:53:06.065Z,62.29248
2018-07-21T03:54:21.990Z,62.493896
2018-07-21T03:55:37.892Z,63.122559
2018-07-21T03:56:53.831Z,63.122559
2018-07-21T03:58:09.747Z,63.092041
2018-07-21T03:59:25.677Z,63.293457
2018-07-21T04:00:41.580Z,63.525391
2018-07-21T04:01:57.489Z,63.391113
2018-07-21T04:03:13.361Z,62.994385
2018-07-21T04:04:29.250Z,62.890625
2018-07-21T04:05:45.167Z,63.092041
2018-07-21T04:07:01.048Z,62.792969
2018-07-21T04:08:16.916Z,62.792969
2018-07-21T04:09:32.845Z,62.792969
2018-07-21T04:10:48.724Z,62.695312
2018-07-21T04:12:04.612Z,62.792969
2018-07-21T04:13:20.486Z,62.792969
2018-07-21T04:14:36.390Z,63.092041
2018-07-21T04:15:52.301Z,63.494873
2018-07-21T04:17:08.199Z,63.720703
2018-07-21T04:18:24.073Z,63.391113
2018-07-21T04:19:39.975Z,63.189697
2018-07-21T04:20:55.864Z,63.293457
2018-07-21T04:22:11.736Z,63.623047
2018-07-21T04:23:27.661Z,64.123535
2018-07-21T04:24:43.571Z,64.025879
2018-07-21T04:25:59.450Z,63.824463
2018-07-21T04:27:15.314Z,63.922119
2018-07-21T04:28:31.216Z,63.293457
2018-07-21T04:29:47.141Z,63.092041
2018-07-21T04:31:03.006Z,63.323975
2018-07-21T04:32:18.864Z,63.122559
2018-07-21T04:33:34.754Z,63.189697
2018-07-21T04:34:50.666Z,62.890625
2018-07-21T04:36:07.526Z,62.994385
2018-07-21T04:37:23.383Z,62.994385
2018-07-21T04:38:39.227Z,63.092041
2018-07-21T04:39:55.142Z,62.890625
2018-07-21T04:41:11.046Z,63.122559
2018-07-21T04:42:26.937Z,63.122559
2018-07-21T04:43:42.811Z,63.623047
2018-07-21T04:44:58.690Z,63.824463
2018-07-21T04:46:14.593Z,63.824463
2018-07-21T04:47:30.487Z,63.525391
2018-07-21T04:48:46.359Z,63.220215
2018-07-21T04:50:02.244Z,62.994385
2018-07-21T04:51:18.174Z,62.792969
2018-07-21T04:52:34.064Z,62.695312
2018-07-21T04:53:50.016Z,63.189697
2018-07-21T04:55:05.876Z,63.122559
2018-07-21T04:56:21.818Z,63.323975
2018-07-21T04:57:37.711Z,63.421631
2018-07-21T04:58:53.571Z,63.323975
2018-07-21T05:00:09.470Z,63.323975
2018-07-21T05:01:25.372Z,63.421631
2018-07-21T05:02:41.271Z,63.323975
2018-07-21T05:03:57.171Z,63.421631
2018-07-21T05:05:13.064Z,63.421631
2018-07-21T05:06:28.974Z,63.623047
2018-07-21T05:07:44.872Z,63.720703
2018-07-21T05:09:00.745Z,63.922119
2018-07-21T05:10:16.638Z,63.824463
2018-07-21T05:11:32.629Z,64.025879
2018-07-21T05:12:48.518Z,63.824463
2018-07-21T05:14:04.440Z,63.592529
2018-07-21T05:15:20.351Z,63.323975
2018-07-21T05:16:36.252Z,63.323975
2018-07-21T05:17:52.156Z,63.323975
2018-07-21T05:19:08.034Z,63.293457
2018-07-21T05:20:23.935Z,63.092041
2018-07-21T05:21:39.836Z,63.623047
2018-07-21T05:22:55.715Z,63.824463
2018-07-21T05:24:11.646Z,63.922119
2018-07-21T05:25:27.521Z,64.025879
2018-07-21T05:26:43.397Z,64.123535
2018-07-21T05:27:59.270Z,64.752197
2018-07-21T05:29:15.863Z,65.020752
2018-07-21T05:30:32.192Z,65.124512
2018-07-21T05:31:48.096Z,65.655518
2018-07-21T05:33:03.962Z,65.722656
2018-07-21T05:34:19.908Z,65.722656
2018-07-21T05:35:35.791Z,65.325928
2018-07-21T05:36:51.699Z,65.325928
2018-07-21T05:38:07.665Z,65.625
2018-07-21T05:39:23.563Z,66.223145
2018-07-21T05:40:39.436Z,66.320801
2018-07-21T05:41:55.330Z,66.223145
2018-07-21T05:43:11.178Z,66.723633
2018-07-21T05:44:27.076Z,66.320801
2018-07-21T05:45:42.972Z,66.223145
2018-07-21T05:46:58.849Z,65.893555
2018-07-21T05:48:14.707Z,65.789795
2018-07-21T05:49:30.565Z,65.991211
2018-07-21T05:50:46.442Z,66.094971
2018-07-21T05:52:02.370Z,65.893555
2018-07-21T05:53:18.313Z,65.692139
2018-07-21T05:54:34.121Z,65.893555
2018-07-21T05:55:50.131Z,65.594482
2018-07-21T05:57:06.331Z,65.490723
2018-07-21T05:58:22.215Z,65.393066
2018-07-21T05:59:38.220Z,65.692139
2018-07-21T06:00:54.196Z,65.789795
2018-07-21T06:02:10.215Z,65.789795
2018-07-21T06:03:26.115Z,65.594482
2018-07-21T06:04:42.068Z,65.393066
2018-07-21T06:05:57.988Z,65.393066
2018-07-21T06:07:13.887Z,65.692139
2018-07-21T06:11:26.378Z,65.289307
2018-07-21T06:12:42.350Z,64.959717
2018-07-21T06:13:58.267Z,65.19165
2018-07-21T06:15:14.255Z,65.19165
2018-07-21T06:16:30.116Z,65.289307
2018-07-21T06:17:46.007Z,65.19165
2018-07-21T06:19:02.041Z,65.490723
2018-07-21T06:20:18.134Z,65.258789
2018-07-21T06:21:34.218Z,65.393066
2018-07-21T06:22:50.564Z,65.692139
2018-07-21T06:24:06.702Z,65.490723
2018-07-21T06:25:22.633Z,64.794922
2018-07-21T06:26:38.547Z,64.593506
2018-07-21T06:27:54.553Z,63.464355
2018-07-21T06:29:11.536Z,61.065674
2018-07-21T06:30:27.454Z,61.535645
2018-07-21T06:31:43.615Z,62.432861
2018-07-21T06:32:59.647Z,62.82959
2018-07-21T06:34:15.478Z,62.634277
2018-07-21T06:35:32.488Z,61.834717
2018-07-21T06:36:48.426Z,61.730957
2018-07-21T06:38:04.348Z,60.534668
2018-07-21T06:39:20.262Z,61.035156
2018-07-21T06:40:36.169Z,59.967041
2018-07-21T06:41:52.127Z,60.162354
2018-07-21T06:43:08.058Z,59.661865
2018-07-21T06:44:23.944Z,59.765625
2018-07-21T06:45:39.856Z,59.564209
2018-07-21T06:46:55.787Z,59.765625
2018-07-21T06:48:11.735Z,59.765625
2018-07-21T06:49:27.737Z,59.136963
2018-07-21T06:50:43.609Z,58.465576
2018-07-21T06:51:59.551Z,58.26416
2018-07-21T06:53:15.518Z,58.190918
2018-07-21T06:54:31.482Z,58.392334
2018-07-21T06:55:47.438Z,58.59375
2018-07-21T06:57:03.524Z,58.062744
2018-07-21T06:58:19.674Z,58.166504
2018-07-21T06:59:35.585Z,58.892822
2018-07-21T07:00:51.538Z,59.191895
2018-07-21T07:02:08.479Z,59.265137
2018-07-21T07:03:24.466Z,59.466553
2018-07-21T07:06:22.280Z,58.36792
2018-07-21T07:07:38.204Z,58.03833
2018-07-21T07:08:54.149Z,57.8125
2018-07-21T07:10:10.104Z,57.910156
2018-07-21T07:11:25.939Z,57.635498
2018-07-21T07:12:41.838Z,60.705566
2018-07-21T07:13:57.767Z,58.209229
2018-07-21T07:15:13.685Z,57.409668
2018-07-21T07:16:29.651Z,57.537842
2018-07-21T07:17:45.512Z,57.409668
2018-07-21T07:19:01.437Z,57.012939
2018-07-21T07:20:17.403Z,58.465576
2018-07-21T07:21:33.345Z,59.16748
2018-07-21T07:22:49.199Z,59.692383
2018-07-21T07:24:05.103Z,59.991455
2018-07-21T07:25:21.015Z,59.564209
2018-07-21T07:26:36.898Z,59.765625
2018-07-21T07:27:52.859Z,59.661865
2018-07-21T07:29:08.756Z,59.338379
2018-07-21T07:30:24.679Z,59.661865
2018-07-21T07:31:40.637Z,60.119629
2018-07-21T07:32:56.548Z,61.450195
2018-07-21T07:34:12.517Z,61.621094
2018-07-21T07:35:28.469Z,61.120605
2018-07-21T07:36:44.406Z,60.394287
2018-07-21T07:38:00.408Z,59.765625
2018-07-21T07:39:16.334Z,59.765625
2018-07-21T07:40:32.234Z,60.693359
2018-07-21T07:41:48.142Z,61.395264
2018-07-21T07:43:04.096Z,61.291504
2018-07-21T07:44:19.986Z,61.224365
2018-07-21T07:45:35.866Z,60.894775
2018-07-21T07:46:51.804Z,61.791992
2018-07-21T07:48:07.753Z,60.36377
2018-07-21T07:49:23.707Z,60.03418
2018-07-21T07:50:39.622Z,58.306885
2018-07-21T07:51:55.657Z,59.765625
2018-07-21T07:53:12.709Z,60.693359
2018-07-21T07:54:28.669Z,61.090088
2018-07-21T07:55:44.605Z,61.322021
2018-07-21T07:57:00.629Z,65.161133
2018-07-21T07:58:16.559Z,59.735107
2018-07-21T07:59:32.458Z,60.064697
2018-07-21T08:00:48.407Z,61.120605
2018-07-21T08:02:04.383Z,61.621094
2018-07-21T08:03:20.336Z,61.090088
2018-07-21T08:04:36.301Z,60.394287
2018-07-21T08:05:52.227Z,59.863281
2018-07-21T08:07:08.227Z,59.991455
2018-07-21T08:08:24.228Z,60.693359
2018-07-21T08:09:40.122Z,60.919189
2018-07-21T08:10:56.044Z,61.090088
2018-07-21T08:12:12.093Z,61.523438
2018-07-21T08:13:28.054Z,62.792969
2018-07-21T08:14:43.990Z,59.265137
2018-07-21T08:15:59.963Z,59.991455
2018-07-21T08:17:15.930Z,60.394287
2018-07-21T08:18:31.886Z,60.491943
2018-07-21T08:19:47.842Z,60.290527
2018-07-21T08:24:25.034Z,60.449219
2018-07-21T08:25:41.003Z,61.090088
2018-07-21T08:28:37.785Z,58.709717
2018-07-21T08:31:27.646Z,58.538818
2018-07-21T08:32:43.609Z,57.781982
2018-07-21T08:39:02.048Z,56.854248
2018-07-21T08:43:39.422Z,56.982422
2018-07-21T08:44:55.381Z,55.987549
2018-07-21T08:47:51.908Z,57.965088
2018-07-21T08:49:07.883Z,58.538818
2018-07-21T08:50:24.800Z,57.208252
2018-07-21T08:51:40.793Z,57.086182
2018-07-21T08:52:56.772Z,57.611084
2018-07-21T08:54:12.742Z,57.781982
2018-07-21T08:55:28.653Z,57.70874
2018-07-21T08:56:44.577Z,58.282471
2018-07-21T08:58:00.586Z,57.183838
2018-07-21T08:59:17.276Z,57.513428
2018-07-21T09:00:33.224Z,57.055664
2018-07-21T09:01:49.178Z,56.787109
2018-07-21T09:03:06.178Z,57.684326
2018-07-21T09:04:22.160Z,56.982422
2018-07-21T09:05:38.239Z,57.281494
2018-07-21T09:06:54.167Z,56.854248
2018-07-21T09:08:10.146Z,56.854248
2018-07-21T09:09:26.159Z,57.70874
2018-07-21T09:10:42.120Z,57.385254
2018-07-21T09:11:58.069Z,57.513428
2018-07-21T09:13:14.131Z,58.111572
2018-07-21T09:14:30.056Z,58.380127
2018-07-21T09:15:46.039Z,57.879639
2018-07-21T09:17:02.019Z,57.580566
2018-07-21T09:18:17.984Z,57.513428
2018-07-21T09:19:34.027Z,58.538818
2018-07-21T09:20:49.987Z,58.837891
2018-07-21T09:22:05.935Z,57.580566
2018-07-21T09:23:21.932Z,56.958008
2018-07-21T09:24:37.900Z,57.781982
2018-07-21T09:25:53.900Z,59.436035
2018-07-21T09:27:09.924Z,59.863281
2018-07-21T09:28:25.938Z,60.333252
2018-07-21T09:29:41.917Z,58.679199
2018-07-21T09:30:57.918Z,57.556152
2018-07-21T09:32:13.849Z,57.330322
2018-07-21T09:33:29.817Z,56.903076
2018-07-21T09:34:45.717Z,55.804443
2018-07-21T09:36:01.681Z,56.70166
2018-07-21T09:37:17.588Z,55.310059
2018-07-21T09:38:33.535Z,55.053711
2018-07-21T09:39:49.495Z,55.352783
2018-07-21T09:41:05.452Z,54.431152
2018-07-21T09:42:21.368Z,54.827881
2018-07-21T09:43:37.341Z,54.309082
2018-07-21T09:44:53.268Z,55.084229
2018-07-21T09:46:09.234Z,54.656982
2018-07-21T09:47:25.163Z,54.785156
2018-07-21T09:48:41.077Z,55.279541
2018-07-21T09:49:57.000Z,55.407715
2018-07-21T09:51:12.951Z,55.877686
2018-07-21T09:52:28.898Z,54.882812
2018-07-21T09:53:44.806Z,56.359863
2018-07-21T09:55:00.796Z,57.556152
2018-07-21T09:56:16.760Z,56.402588
2018-07-21T09:57:32.751Z,56.274414
2018-07-21T09:58:48.698Z,55.554199
2018-07-21T10:00:04.658Z,55.157471
2018-07-21T10:01:20.552Z,53.863525
2018-07-21T10:02:36.530Z,54.632568
2018-07-21T10:03:52.513Z,54.730225
2018-07-21T10:05:08.456Z,54.504395
2018-07-21T10:06:24.328Z,54.35791
2018-07-21T10:07:40.275Z,55.053711
2018-07-21T10:08:56.216Z,54.754639
2018-07-21T10:10:12.228Z,55.682373
2018-07-21T10:11:28.132Z,55.157471
2018-07-21T10:12:44.075Z,54.559326
2018-07-21T10:13:59.994Z,54.083252
2018-07-21T10:15:15.943Z,53.936768
2018-07-21T10:16:31.864Z,54.260254
2018-07-21T10:17:47.787Z,54.754639
2018-07-21T10:19:03.695Z,54.907227
2018-07-21T10:20:19.653Z,56.359863
2018-07-21T10:21:35.775Z,55.957031
2018-07-21T10:22:51.835Z,57.281494
2018-07-21T10:24:08.170Z,56.732178
2018-07-21T10:25:24.092Z,57.202148
2018-07-21T10:26:40.061Z,55.554199
2018-07-21T10:27:56.032Z,54.486084
2018-07-21T10:29:11.989Z,53.735352
2018-07-21T10:30:27.942Z,55.157471
2018-07-21T10:31:43.949Z,55.157471
2018-07-21T10:32:59.915Z,56.530762
2018-07-21T10:34:15.836Z,57.458496
2018-07-21T10:35:31.789Z,56.274414
2018-07-21T10:36:47.717Z,54.632568
2018-07-21T10:38:03.689Z,54.35791
2018-07-21T10:39:19.565Z,54.80957
2018-07-21T10:40:35.523Z,55.084229
2018-07-21T10:41:51.443Z,54.35791
2018-07-21T10:43:07.436Z,55.505371
2018-07-21T10:44:23.389Z,56.207275
2018-07-21T10:45:39.413Z,55.908203
2018-07-21T10:46:55.493Z,55.383301
2018-07-21T10:49:53.332Z,55.181885
2018-07-21T10:51:09.483Z,56.005859
2018-07-21T10:52:25.436Z,55.682373
2018-07-21T10:53:41.381Z,55.505371
2018-07-21T10:54:57.303Z,55.578613
2018-07-21T10:56:13.276Z,55.877686
2018-07-21T10:57:29.201Z,55.731201
2018-07-21T10:58:45.134Z,56.433105
2018-07-21T11:00:01.036Z,56.433105
2018-07-21T11:01:17.041Z,56.506348
2018-07-21T11:02:32.973Z,56.176758
2018-07-21T11:03:48.912Z,56.152344
2018-07-21T11:05:04.894Z,55.651855
2018-07-21T11:06:21.270Z,55.352783
2018-07-21T11:07:37.250Z,54.730225
2018-07-21T11:08:53.251Z,54.754639
2018-07-21T11:10:09.267Z,54.980469
2018-07-21T11:11:25.250Z,54.260254
2018-07-21T11:12:41.257Z,53.411865
2018-07-21T11:13:57.175Z,53.363037
2018-07-21T11:15:13.191Z,52.667236
2018-07-21T11:16:29.024Z,51.672363
2018-07-21T11:17:44.993Z,50.878906
2018-07-21T11:19:00.940Z,51.89209
2018-07-21T11:20:16.879Z,51.721191
2018-07-21T11:21:32.851Z,52.23999
2018-07-21T11:22:48.817Z,52.740479
2018-07-21T11:24:04.756Z,53.338623
2018-07-21T11:25:20.668Z,54.034424
2018-07-21T11:26:36.623Z,53.936768
2018-07-21T11:27:52.677Z,53.063965
2018-07-21T11:29:08.687Z,52.838135
2018-07-21T11:30:24.619Z,53.662109
2018-07-21T11:31:40.687Z,53.961182
2018-07-21T11:32:56.619Z,53.662109
2018-07-21T11:34:12.637Z,53.588867
2018-07-21T11:35:28.689Z,54.486084
2018-07-21T11:36:44.620Z,54.980469
2018-07-21T11:38:00.984Z,54.754639
2018-07-21T11:39:17.430Z,54.58374
2018-07-21T11:40:33.377Z,54.980469
2018-07-21T11:41:49.269Z,54.980469
2018-07-21T11:43:05.216Z,54.559326
2018-07-21T11:44:21.196Z,54.681396
2018-07-21T11:45:37.148Z,55.084229
2018-07-21T11:46:53.068Z,55.682373
2018-07-21T11:48:08.996Z,55.651855
2018-07-21T11:51:05.526Z,56.47583
2018-07-21T11:52:21.481Z,55.853271
2018-07-21T11:53:37.531Z,55.456543
2018-07-21T11:54:53.439Z,55.554199
2018-07-21T11:56:09.392Z,55.352783
2018-07-21T11:57:25.325Z,54.956055
2018-07-21T11:58:41.252Z,54.730225
2018-07-21T11:59:57.199Z,54.23584
2018-07-21T12:01:13.170Z,53.613281
2018-07-21T12:02:29.089Z,54.034424
2018-07-21T12:03:45.047Z,54.205322
2018-07-21T12:05:00.977Z,54.01001
2018-07-21T12:06:16.970Z,53.686523
2018-07-21T12:07:32.909Z,53.161621
2018-07-21T12:08:48.823Z,53.363037
2018-07-21T12:10:04.765Z,53.460693
2018-07-21T12:11:20.715Z,53.582764
2018-07-21T12:12:36.637Z,53.314209
2018-07-21T12:13:52.578Z,54.406738
2018-07-21T12:15:08.541Z,54.602051
2018-07-21T12:16:24.478Z,54.431152
2018-07-21T12:17:40.440Z,55.157471
2018-07-21T12:18:56.382Z,55.651855
2018-07-21T12:20:12.338Z,55.554199
2018-07-21T12:21:28.253Z,55.456543
2018-07-21T12:22:44.174Z,55.456543
2018-07-21T12:24:00.073Z,55.950928
2018-07-21T12:25:16.041Z,55.755615
2018-07-21T12:26:32.017Z,55.822754
2018-07-21T12:27:47.921Z,55.895996
2018-07-21T12:29:03.839Z,54.901123
2018-07-21T12:30:19.727Z,54.47998
2018-07-21T12:31:35.711Z,54.180908
2018-07-21T12:32:51.661Z,54.278564
2018-07-21T12:34:07.669Z,53.55835
2018-07-21T12:35:23.595Z,53.436279
2018-07-21T12:36:39.575Z,53.857422
2018-07-21T12:37:55.452Z,54.553223
2018-07-21T12:39:11.454Z,54.705811
2018-07-21T12:40:27.409Z,54.876709
2018-07-21T12:41:43.334Z,54.803467
2018-07-21T12:42:59.353Z,55.200195
2018-07-21T12:44:15.341Z,55.377197
2018-07-21T12:45:31.255Z,55.273438
2018-07-21T12:46:47.158Z,54.949951
2018-07-21T12:48:03.058Z,55.969238
2018-07-21T12:49:18.970Z,57.489014
2018-07-21T12:52:15.480Z,57.489014
2018-07-21T12:53:31.361Z,57.092285
2018-07-21T12:54:47.339Z,56.665039
2018-07-21T12:56:03.253Z,56.365967
2018-07-21T12:57:19.160Z,56.04248
2018-07-21T12:58:35.091Z,55.517578
2018-07-21T12:59:51.058Z,55.81665
2018-07-21T13:01:06.970Z,55.023193
2018-07-21T13:02:22.942Z,55.419922
2018-07-21T13:03:38.899Z,56.018066
2018-07-21T13:04:54.948Z,54.925537
2018-07-21T13:06:10.871Z,55.419922
2018-07-21T13:07:26.852Z,55.023193
2018-07-21T13:08:42.876Z,54.724121
2018-07-21T13:09:58.874Z,54.797363
2018-07-21T13:11:14.884Z,54.278564
2018-07-21T13:12:30.848Z,55.12085
2018-07-21T13:13:46.753Z,55.419922
2018-07-21T13:15:02.719Z,55.12085
2018-07-21T13:16:18.674Z,55.718994
2018-07-21T13:17:34.596Z,53.90625
2018-07-21T13:18:50.630Z,54.077148
2018-07-21T13:20:06.575Z,53.509521
2018-07-21T13:21:22.508Z,54.205322
2018-07-21T13:22:38.466Z,54.400635
2018-07-21T13:23:54.426Z,54.376221
2018-07-21T13:25:10.641Z,51.77002
2018-07-21T13:26:27.371Z,51.177979
2018-07-21T13:27:44.592Z,50.78125
2018-07-21T13:29:00.530Z,52.215576
2018-07-21T13:30:16.447Z,51.99585
2018-07-21T13:31:32.688Z,50.976562
2018-07-21T13:32:48.749Z,47.625732
2018-07-21T13:34:04.690Z,46.160889
2018-07-21T13:35:20.613Z,46.435547
2018-07-21T13:36:36.568Z,46.417236
2018-07-21T13:37:52.523Z,45.446777
2018-07-21T13:39:08.485Z,45.76416
2018-07-21T13:40:24.426Z,46.557617
2018-07-21T13:41:40.369Z,47.155762
2018-07-21T13:42:56.374Z,46.362305
2018-07-21T13:44:12.301Z,46.240234
2018-07-21T13:45:28.341Z,46.362305
2018-07-21T13:46:44.322Z,46.160889
2018-07-21T13:48:00.235Z,45.861816
2018-07-21T13:49:16.181Z,45.76416
2018-07-21T13:50:32.137Z,45.544434
2018-07-21T13:51:48.081Z,45.245361
2018-07-21T13:53:04.001Z,45.666504
2018-07-21T13:54:19.927Z,45.666504
2018-07-21T13:55:35.910Z,45.465088
2018-07-21T13:56:51.832Z,45.166016
2018-07-21T13:58:07.839Z,45.367432
2018-07-21T13:59:23.769Z,45.446777
2018-07-21T14:00:39.732Z,45.739746
2018-07-21T14:01:55.626Z,46.063232
2018-07-21T14:03:11.557Z,46.704102
2018-07-21T14:04:27.541Z,47.10083
2018-07-21T14:05:43.449Z,46.679688
2018-07-21T14:06:59.401Z,46.362305
2018-07-21T14:08:15.267Z,46.954346
2018-07-21T14:09:31.349Z,47.497559
2018-07-21T14:10:47.255Z,47.796631
2018-07-21T14:12:03.180Z,48.114014
2018-07-21T14:13:19.164Z,49.334717
2018-07-21T14:14:35.145Z,49.01123
2018-07-21T14:15:51.133Z,48.687744
2018-07-21T14:17:07.039Z,48.31543
2018-07-21T14:18:23.028Z,48.413086
2018-07-21T14:19:39.046Z,47.894287
2018-07-21T14:20:55.075Z,47.174072
2018-07-21T14:22:11.011Z,47.595215
2018-07-21T14:23:27.025Z,48.413086
2018-07-21T14:24:43.010Z,49.01123
2018-07-21T14:25:59.019Z,49.108887
2018-07-21T14:27:14.937Z,48.88916
2018-07-21T14:28:30.874Z,49.212646
2018-07-21T14:29:46.998Z,49.853516
2018-07-21T14:31:02.830Z,50.152588
2018-07-21T14:32:18.796Z,49.829102
2018-07-21T14:33:34.753Z,49.230957
2018-07-21T14:34:50.795Z,48.040771
2018-07-21T14:36:06.942Z,48.040771
2018-07-21T14:37:22.680Z,48.236084
2018-07-21T14:38:38.683Z,48.339844
2018-07-21T14:39:54.602Z,48.516846
2018-07-21T14:41:10.582Z,48.31543
2018-07-21T14:42:26.493Z,47.918701
2018-07-21T14:43:42.404Z,48.31543
2018-07-21T14:44:58.323Z,48.413086
2018-07-21T14:46:14.325Z,48.413086
2018-07-21T14:47:30.349Z,48.638916
2018-07-21T14:48:46.272Z,48.913574
2018-07-21T14:50:02.152Z,49.407959
2018-07-21T14:51:18.059Z,50.030518
2018-07-21T14:52:34.953Z,50.402832
2018-07-21T14:53:50.905Z,50.500488
2018-07-21T14:55:07.011Z,49.780273